Horizon Anchorage — KGTX — position and weather

sailwx.info

Track history (hours):
 
Tides and Currents Weather Stations Pressure Air Temp Water Temp Dewpoint Dewpoint Depression Visibility Wind Speed Wind Dir Waves Ship Positions

Horizon Anchorage

Owner: HORIZON LINES ALASKA VESSELS, LLC. C/O MATSON ALASKA, INC., Oakland, CA. More information available from US FCC via Universal Licensing System and Coast Guard Vessel Documentation Center.

Last reported at 2015-Aug-28 09:00 UTC. Time now 2015-Aug-28 12:39 UTC.
Position N 51°12' W 130°30'.

Type: Cargo ship. MMSI: 366557000.

Wind from 220 at 22 knots

Barometer 1008.9 mb
Air temperature 16.7 ° C
Visibility: greater than 10.8 NM
Dewpoint 13.9 ° C
Water temperature 17.8 ° C

Date/timePositionNaut miles runAvg speedWind from/ knotsBaromVisibWave heightAir tempDewpointWater temp
2015-Aug-28 09:00N 51°12' W 130°30'4515.1 220 / 221008.910.8 16.713.917.8
2015-Aug-28 06:00N 50°42' W 129°36'10819.8 230 / 101011.3 5.4 17.515.917.7
2015-Aug-28 00:33N 49°35' W 127°24'1919.6
2015-Aug-27 23:33N 49°24' W 126°60'2019.8
2015-Aug-27 22:33N 49°12' W 126°35'2019.9
2015-Aug-27 21:33N 49°00' W 126°10'1919.6
2015-Aug-27 20:34N 48°48' W 125°47'2019.7
2015-Aug-27 19:34N 48°40' W 125°20'1919.4
2015-Aug-27 18:34N 48°33' W 124°53'2019.7
2015-Aug-27 17:34N 48°26' W 124°25'2019.9
2015-Aug-27 16:33N 48°18' W 123°57'2020.4
2015-Aug-27 15:33N 48°13' W 123°28'1515.2
2015-Aug-27 14:33N 48°13' W 123°05'2020.3
2015-Aug-27 13:34N 48°04' W 122°38'2020.2
2015-Aug-27 12:34N 47°45' W 122°26'1818.0
2015-Aug-27 11:34N 47°27' W 122°24'1110.7
2015-Aug-27 10:33N 47°16' W 122°25'0 0.4
2015-Aug-27 09:33N 47°16' W 122°25'0 0.0
2015-Aug-27 08:33N 47°16' W 122°25'0 0.0
2015-Aug-27 04:05N 47°16' W 122°25'0 0.0
2015-Aug-27 03:29N 47°16' W 122°25'0 0.0
2015-Aug-27 02:32N 47°16' W 122°25'0 0.0
2015-Aug-27 01:20N 47°16' W 122°25'0 0.0
2015-Aug-27 00:23N 47°16' W 122°25'0 0.0
2015-Aug-26 20:32N 47°16' W 122°25'0 0.0
2015-Aug-26 19:29N 47°16' W 122°25'0 0.0
2015-Aug-26 17:15N 47°16' W 122°25'0 0.0
2015-Aug-26 16:33N 47°16' W 122°25'8 7.7
2015-Aug-26 15:34N 47°24' W 122°22'1818.2
2015-Aug-26 14:34N 47°41' W 122°28'1717.2
2015-Aug-26 13:33N 47°58' W 122°35'1515.1
2015-Aug-26 12:33N 48°10' W 122°48'1717.1
2015-Aug-26 11:33N 48°11' W 123°13'1313.4
2015-Aug-26 10:33N 48°13' W 123°33'2017.9
2015-Aug-26 09:26N 48°16' W 124°03'2018.8
2015-Aug-26 08:24N 48°25' W 124°29'1619.3
2015-Aug-26 07:33N 48°28' W 124°53'1919.2
2015-Aug-26 06:33N 48°31' W 125°22'2019.7
2015-Aug-26 05:33N 48°37' W 125°50'2019.8
2015-Aug-26 04:33N 48°43' W 126°19'15620.7
2015-Aug-25 21:00N 49°42' W 130°00'28118.7 200 / 141014.610.8 0.518.315.818.3
2015-Aug-25 06:00N 51°06' W 137°00'37120.6 050 / 151011.2 5.4 15.011.616.4
2015-Aug-24 12:00N 52°12' W 146°48'11118.5 290 / 201015.510.8 14.412.512.8
2015-Aug-24 06:00N 52°24' W 149°48'12821.4 320 / 171017.9 5.4 16.010.812.5
2015-Aug-24 00:00N 52°30' W 153°18'   290 / 201020.110.8 1.024.414.812.8
2015-Aug-21 12:00N 54°00' W 164°12'4214.1 290 / 251018.310.8 13.3 7.012.2
2015-Aug-21 09:00N 54°00' W 163°00'   290 / 191017.510.8 13.3 7.012.8
Track history (hours):
 
Tides and Currents Weather Stations Pressure Air Temp Water Temp Dewpoint Dewpoint Depression Visibility Wind Speed Wind Dir Waves Ship Positions

Horizon Anchorage

Owner: HORIZON LINES ALASKA VESSELS, LLC. C/O MATSON ALASKA, INC., Oakland, CA. More information available from US FCC via Universal Licensing System and Coast Guard Vessel Documentation Center.

Last reported at 2015-Aug-28 09:00 UTC. Time now 2015-Aug-28 12:39 UTC.
Position N 51°12' W 130°30'.

Type: Cargo ship. MMSI: 366557000.

Wind from 220 at 22 knots

Barometer 1008.9 mb
Air temperature 16.7 ° C
Visibility: greater than 10.8 NM
Dewpoint 13.9 ° C
Water temperature 17.8 ° C

Date/timePositionNaut miles runAvg speedWind from/ knotsBaromVisibWave heightAir tempDewpointWater temp
2015-Aug-28 09:00N 51°12' W 130°30'4515.1 220 / 221008.910.8 16.713.917.8
2015-Aug-28 06:00N 50°42' W 129°36'10819.8 230 / 101011.3 5.4 17.515.917.7
2015-Aug-28 00:33N 49°35' W 127°24'1919.6
2015-Aug-27 23:33N 49°24' W 126°60'2019.8
2015-Aug-27 22:33N 49°12' W 126°35'2019.9
2015-Aug-27 21:33N 49°00' W 126°10'1919.6
2015-Aug-27 20:34N 48°48' W 125°47'2019.7
2015-Aug-27 19:34N 48°40' W 125°20'1919.4
2015-Aug-27 18:34N 48°33' W 124°53'2019.7
2015-Aug-27 17:34N 48°26' W 124°25'2019.9
2015-Aug-27 16:33N 48°18' W 123°57'2020.4
2015-Aug-27 15:33N 48°13' W 123°28'1515.2
2015-Aug-27 14:33N 48°13' W 123°05'2020.3
2015-Aug-27 13:34N 48°04' W 122°38'2020.2
2015-Aug-27 12:34N 47°45' W 122°26'1818.0
2015-Aug-27 11:34N 47°27' W 122°24'1110.7
2015-Aug-27 10:33N 47°16' W 122°25'0 0.4
2015-Aug-27 09:33N 47°16' W 122°25'0 0.0
2015-Aug-27 08:33N 47°16' W 122°25'0 0.0
2015-Aug-27 04:05N 47°16' W 122°25'0 0.0
2015-Aug-27 03:29N 47°16' W 122°25'0 0.0
2015-Aug-27 02:32N 47°16' W 122°25'0 0.0
2015-Aug-27 01:20N 47°16' W 122°25'0 0.0
2015-Aug-27 00:23N 47°16' W 122°25'0 0.0
2015-Aug-26 20:32N 47°16' W 122°25'0 0.0
2015-Aug-26 19:29N 47°16' W 122°25'0 0.0
2015-Aug-26 17:15N 47°16' W 122°25'0 0.0
2015-Aug-26 16:33N 47°16' W 122°25'8 7.7
2015-Aug-26 15:34N 47°24' W 122°22'1818.2
2015-Aug-26 14:34N 47°41' W 122°28'1717.2
2015-Aug-26 13:33N 47°58' W 122°35'1515.1
2015-Aug-26 12:33N 48°10' W 122°48'1717.1
2015-Aug-26 11:33N 48°11' W 123°13'1313.4
2015-Aug-26 10:33N 48°13' W 123°33'2017.9
2015-Aug-26 09:26N 48°16' W 124°03'2018.8
2015-Aug-26 08:24N 48°25' W 124°29'1619.3
2015-Aug-26 07:33N 48°28' W 124°53'1919.2
2015-Aug-26 06:33N 48°31' W 125°22'2019.7
2015-Aug-26 05:33N 48°37' W 125°50'2019.8
2015-Aug-26 04:33N 48°43' W 126°19'15620.7
2015-Aug-25 21:00N 49°42' W 130°00'28118.7 200 / 141014.610.8 0.518.315.818.3
2015-Aug-25 06:00N 51°06' W 137°00'37120.6 050 / 151011.2 5.4 15.011.616.4
2015-Aug-24 12:00N 52°12' W 146°48'11118.5 290 / 201015.510.8 14.412.512.8
2015-Aug-24 06:00N 52°24' W 149°48'12821.4 320 / 171017.9 5.4 16.010.812.5
2015-Aug-24 00:00N 52°30' W 153°18'   290 / 201020.110.8 1.024.414.812.8
2015-Aug-21 12:00N 54°00' W 164°12'4214.1 290 / 251018.310.8 13.3 7.012.2
2015-Aug-21 09:00N 54°00' W 163°00'   290 / 191017.510.8 13.3 7.012.8

Dump ship's entire track history